aviador You're here:

MMEP Decoded Metar

TEPIC in MEXICO
Report Time2018-05-23 17:45:00
UTC Time2018-05-23 18:45:03
Flight Rules vfr VFR
WindCalm
Visibility9999 m
Phenomena:Smoke
Clouds:N/A
Expected CloudBase > 10,000 ft AGL from Temp-Dew spread
CeilingNone
Temp32°C (ISA +23)
Dew Point07°C (21% RH)
Heat Index30.0°C
AAT31.3°C
QNH1017 hPa
Density Alt5,636 ft
Elevation3,025 ft
Report Wrong Elevation
Raw Report
MMEP 231745Z 00000KT 8SM SKC 32/07 A3003 RMK SLP121 58007 958 FU
ARND=

Extra information for MMEP:More info

Metar Taf Metar & Taf Last 4 Metars F.Rules Stats Wind Profile Meteogram Temp Stats Airport Information Weather charts Add Link Nearby VenuesMetar ALERT Operation Metar Decoded Social comments